sensor_id;sensor_type;location;lat;lon;timestamp;P1;durP1;ratioP1;P2;durP2;ratioP2
83632;SDS011;73595;53.084;6.696;2024-03-23T00:56:05;38.80;;;5.82;;
83632;SDS011;73595;53.084;6.696;2024-03-23T00:58:30;44.25;;;5.40;;
83632;SDS011;73595;53.084;6.696;2024-03-23T01:00:55;37.80;;;5.10;;
83632;SDS011;73595;53.084;6.696;2024-03-23T01:03:21;36.65;;;6.15;;
83632;SDS011;73595;53.084;6.696;2024-03-23T01:05:46;31.67;;;5.25;;
83632;SDS011;73595;53.084;6.696;2024-03-23T01:08:11;28.83;;;5.25;;
83632;SDS011;73595;53.084;6.696;2024-03-23T01:10:38;29.75;;;4.68;;
83632;SDS011;73595;53.084;6.696;2024-03-23T01:13:04;33.83;;;4.90;;
83632;SDS011;73595;53.084;6.696;2024-03-23T01:15:29;32.38;;;4.80;;
83632;SDS011;73595;53.084;6.696;2024-03-23T01:17:54;37.58;;;4.75;;
83632;SDS011;73595;53.084;6.696;2024-03-23T01:20:20;38.60;;;5.35;;
83632;SDS011;73595;53.084;6.696;2024-03-23T01:22:45;27.05;;;5.50;;
83632;SDS011;73595;53.084;6.696;2024-03-23T01:25:10;28.27;;;4.57;;
83632;SDS011;73595;53.084;6.696;2024-03-23T01:27:36;30.45;;;4.90;;
83632;SDS011;73595;53.084;6.696;2024-03-23T01:30:01;36.78;;;5.53;;
83632;SDS011;73595;53.084;6.696;2024-03-23T01:32:27;35.70;;;5.15;;
83632;SDS011;73595;53.084;6.696;2024-03-23T01:34:52;28.48;;;4.90;;
83632;SDS011;73595;53.084;6.696;2024-03-23T01:37:17;41.00;;;5.50;;
83632;SDS011;73595;53.084;6.696;2024-03-23T01:39:42;36.45;;;4.70;;
83632;SDS011;73595;53.084;6.696;2024-03-23T01:42:08;26.13;;;5.10;;
83632;SDS011;73595;53.084;6.696;2024-03-23T01:44:33;40.90;;;5.10;;
83632;SDS011;73595;53.084;6.696;2024-03-23T01:46:58;29.35;;;4.72;;
83632;SDS011;73595;53.084;6.696;2024-03-23T01:49:25;28.42;;;4.88;;
83632;SDS011;73595;53.084;6.696;2024-03-23T01:51:51;32.58;;;5.18;;
83632;SDS011;73595;53.084;6.696;2024-03-23T01:54:16;37.60;;;5.20;;
83632;SDS011;73595;53.084;6.696;2024-03-23T01:56:42;32.47;;;4.63;;
83632;SDS011;73595;53.084;6.696;2024-03-23T01:59:07;41.17;;;5.63;;
83632;SDS011;73595;53.084;6.696;2024-03-23T02:01:34;34.50;;;5.88;;
83632;SDS011;73595;53.084;6.696;2024-03-23T02:04:01;39.00;;;4.97;;
83632;SDS011;73595;53.084;6.696;2024-03-23T02:06:26;42.50;;;5.70;;
83632;SDS011;73595;53.084;6.696;2024-03-23T02:08:52;42.92;;;4.88;;
83632;SDS011;73595;53.084;6.696;2024-03-23T02:11:18;31.65;;;5.00;;
83632;SDS011;73595;53.084;6.696;2024-03-23T02:13:43;31.40;;;4.75;;
83632;SDS011;73595;53.084;6.696;2024-03-23T02:16:09;26.90;;;5.32;;
83632;SDS011;73595;53.084;6.696;2024-03-23T02:18:34;34.88;;;5.40;;
83632;SDS011;73595;53.084;6.696;2024-03-23T02:21:00;39.92;;;5.80;;
83632;SDS011;73595;53.084;6.696;2024-03-23T02:23:26;34.63;;;5.13;;
83632;SDS011;73595;53.084;6.696;2024-03-23T02:25:51;30.20;;;5.07;;
83632;SDS011;73595;53.084;6.696;2024-03-23T02:28:18;38.72;;;5.88;;
83632;SDS011;73595;53.084;6.696;2024-03-23T02:30:44;33.97;;;5.47;;
83632;SDS011;73595;53.084;6.696;2024-03-23T02:33:09;30.05;;;4.63;;
83632;SDS011;73595;53.084;6.696;2024-03-23T02:35:36;29.25;;;4.75;;
83632;SDS011;73595;53.084;6.696;2024-03-23T02:38:02;27.05;;;4.47;;
83632;SDS011;73595;53.084;6.696;2024-03-23T02:40:28;33.25;;;5.18;;
83632;SDS011;73595;53.084;6.696;2024-03-23T02:42:53;30.10;;;4.80;;
83632;SDS011;73595;53.084;6.696;2024-03-23T02:45:19;33.70;;;5.00;;
83632;SDS011;73595;53.084;6.696;2024-03-23T02:47:44;26.48;;;4.68;;
83632;SDS011;73595;53.084;6.696;2024-03-23T02:50:09;23.02;;;4.20;;
83632;SDS011;73595;53.084;6.696;2024-03-23T02:52:35;39.08;;;5.35;;
83632;SDS011;73595;53.084;6.696;2024-03-23T02:55:01;28.00;;;4.80;;
83632;SDS011;73595;53.084;6.696;2024-03-23T02:57:27;29.75;;;4.90;;
83632;SDS011;73595;53.084;6.696;2024-03-23T02:59:53;27.23;;;4.32;;
83632;SDS011;73595;53.084;6.696;2024-03-23T03:02:18;35.92;;;5.05;;
83632;SDS011;73595;53.084;6.696;2024-03-23T03:04:44;25.13;;;5.20;;
83632;SDS011;73595;53.084;6.696;2024-03-23T03:07:10;32.55;;;4.72;;
83632;SDS011;73595;53.084;6.696;2024-03-23T03:09:35;24.50;;;4.35;;
83632;SDS011;73595;53.084;6.696;2024-03-23T03:12:03;24.58;;;4.07;;
83632;SDS011;73595;53.084;6.696;2024-03-23T03:14:29;28.52;;;5.63;;
83632;SDS011;73595;53.084;6.696;2024-03-23T03:16:54;34.28;;;6.53;;
83632;SDS011;73595;53.084;6.696;2024-03-23T03:19:20;28.77;;;4.72;;
83632;SDS011;73595;53.084;6.696;2024-03-23T03:21:45;32.03;;;4.95;;
83632;SDS011;73595;53.084;6.696;2024-03-23T03:24:10;33.83;;;4.80;;
83632;SDS011;73595;53.084;6.696;2024-03-23T03:26:36;34.95;;;5.57;;
83632;SDS011;73595;53.084;6.696;2024-03-23T03:29:02;24.58;;;4.60;;
83632;SDS011;73595;53.084;6.696;2024-03-23T03:31:27;25.70;;;4.78;;
83632;SDS011;73595;53.084;6.696;2024-03-23T03:33:53;40.90;;;5.68;;
83632;SDS011;73595;53.084;6.696;2024-03-23T03:36:18;29.15;;;4.28;;
83632;SDS011;73595;53.084;6.696;2024-03-23T03:38:44;35.92;;;5.03;;
83632;SDS011;73595;53.084;6.696;2024-03-23T03:41:09;22.02;;;4.40;;
83632;SDS011;73595;53.084;6.696;2024-03-23T03:43:35;30.52;;;5.15;;
83632;SDS011;73595;53.084;6.696;2024-03-23T03:46:00;21.58;;;4.70;;
83632;SDS011;73595;53.084;6.696;2024-03-23T03:48:26;43.85;;;5.07;;
83632;SDS011;73595;53.084;6.696;2024-03-23T03:50:52;23.63;;;5.05;;
83632;SDS011;73595;53.084;6.696;2024-03-23T03:53:18;25.88;;;4.72;;
83632;SDS011;73595;53.084;6.696;2024-03-23T03:55:44;28.10;;;5.07;;
83632;SDS011;73595;53.084;6.696;2024-03-23T03:58:09;32.03;;;5.18;;
83632;SDS011;73595;53.084;6.696;2024-03-23T04:00:35;18.80;;;3.90;;
83632;SDS011;73595;53.084;6.696;2024-03-23T04:03:00;28.42;;;4.85;;
83632;SDS011;73595;53.084;6.696;2024-03-23T04:05:26;24.50;;;4.30;;
83632;SDS011;73595;53.084;6.696;2024-03-23T04:07:51;27.95;;;4.90;;
83632;SDS011;73595;53.084;6.696;2024-03-23T04:10:17;32.95;;;5.15;;
83632;SDS011;73595;53.084;6.696;2024-03-23T04:12:43;28.33;;;4.65;;
83632;SDS011;73595;53.084;6.696;2024-03-23T04:15:08;25.60;;;4.72;;
83632;SDS011;73595;53.084;6.696;2024-03-23T04:17:34;26.30;;;5.05;;
83632;SDS011;73595;53.084;6.696;2024-03-23T04:20:00;31.17;;;4.68;;
83632;SDS011;73595;53.084;6.696;2024-03-23T04:22:26;26.08;;;5.35;;
83632;SDS011;73595;53.084;6.696;2024-03-23T04:24:55;28.10;;;5.03;;
83632;SDS011;73595;53.084;6.696;2024-03-23T04:27:21;22.70;;;4.78;;
83632;SDS011;73595;53.084;6.696;2024-03-23T04:29:50;27.70;;;4.72;;
83632;SDS011;73595;53.084;6.696;2024-03-23T04:32:16;24.67;;;4.18;;
83632;SDS011;73595;53.084;6.696;2024-03-23T04:34:43;32.58;;;4.93;;
83632;SDS011;73595;53.084;6.696;2024-03-23T04:37:08;24.52;;;4.05;;
83632;SDS011;73595;53.084;6.696;2024-03-23T04:39:35;27.80;;;4.10;;
83632;SDS011;73595;53.084;6.696;2024-03-23T04:42:01;30.45;;;5.40;;
83632;SDS011;73595;53.084;6.696;2024-03-23T04:44:26;24.58;;;4.38;;
83632;SDS011;73595;53.084;6.696;2024-03-23T04:46:52;30.48;;;4.32;;
83632;SDS011;73595;53.084;6.696;2024-03-23T04:49:17;23.80;;;3.85;;
83632;SDS011;73595;53.084;6.696;2024-03-23T04:51:42;25.88;;;4.43;;
83632;SDS011;73595;53.084;6.696;2024-03-23T04:54:11;30.15;;;4.35;;
83632;SDS011;73595;53.084;6.696;2024-03-23T04:56:37;30.20;;;4.38;;
83632;SDS011;73595;53.084;6.696;2024-03-23T04:59:02;30.48;;;4.50;;
83632;SDS011;73595;53.084;6.696;2024-03-23T05:01:29;24.08;;;3.55;;
83632;SDS011;73595;53.084;6.696;2024-03-23T05:03:56;24.38;;;4.25;;
83632;SDS011;73595;53.084;6.696;2024-03-23T05:06:22;21.27;;;4.53;;
83632;SDS011;73595;53.084;6.696;2024-03-23T05:08:47;22.15;;;3.75;;
83632;SDS011;73595;53.084;6.696;2024-03-23T05:11:12;23.45;;;4.20;;
83632;SDS011;73595;53.084;6.696;2024-03-23T05:13:38;27.52;;;4.47;;
83632;SDS011;73595;53.084;6.696;2024-03-23T05:16:03;24.58;;;4.03;;
83632;SDS011;73595;53.084;6.696;2024-03-23T05:18:29;30.65;;;4.18;;
83632;SDS011;73595;53.084;6.696;2024-03-23T05:20:57;20.23;;;3.30;;
83632;SDS011;73595;53.084;6.696;2024-03-23T05:23:25;23.45;;;4.30;;
83632;SDS011;73595;53.084;6.696;2024-03-23T05:25:50;26.77;;;4.20;;
83632;SDS011;73595;53.084;6.696;2024-03-23T05:28:17;27.83;;;4.63;;
83632;SDS011;73595;53.084;6.696;2024-03-23T05:30:42;13.52;;;3.33;;
83632;SDS011;73595;53.084;6.696;2024-03-23T05:33:08;27.85;;;4.30;;
83632;SDS011;73595;53.084;6.696;2024-03-23T05:35:33;31.85;;;4.80;;
83632;SDS011;73595;53.084;6.696;2024-03-23T05:37:59;22.35;;;3.80;;
83632;SDS011;73595;53.084;6.696;2024-03-23T05:40:25;25.38;;;3.80;;
83632;SDS011;73595;53.084;6.696;2024-03-23T05:42:51;23.00;;;3.75;;
83632;SDS011;73595;53.084;6.696;2024-03-23T05:45:20;22.63;;;3.15;;
83632;SDS011;73595;53.084;6.696;2024-03-23T05:47:47;28.50;;;4.20;;
83632;SDS011;73595;53.084;6.696;2024-03-23T05:50:13;21.48;;;3.50;;
83632;SDS011;73595;53.084;6.696;2024-03-23T05:52:39;25.05;;;3.80;;
83632;SDS011;73595;53.084;6.696;2024-03-23T05:55:05;19.42;;;3.25;;
83632;SDS011;73595;53.084;6.696;2024-03-23T05:57:31;19.10;;;3.72;;
83632;SDS011;73595;53.084;6.696;2024-03-23T05:59:57;22.33;;;3.65;;
83632;SDS011;73595;53.084;6.696;2024-03-23T06:02:22;18.25;;;3.45;;
83632;SDS011;73595;53.084;6.696;2024-03-23T06:04:48;27.20;;;3.65;;
83632;SDS011;73595;53.084;6.696;2024-03-23T06:07:14;31.77;;;5.10;;
83632;SDS011;73595;53.084;6.696;2024-03-23T06:09:40;19.10;;;3.60;;
83632;SDS011;73595;53.084;6.696;2024-03-23T06:12:06;24.75;;;3.70;;
83632;SDS011;73595;53.084;6.696;2024-03-23T06:14:31;27.23;;;4.20;;
83632;SDS011;73595;53.084;6.696;2024-03-23T06:16:58;20.00;;;3.33;;
83632;SDS011;73595;53.084;6.696;2024-03-23T06:19:23;23.95;;;3.30;;
83632;SDS011;73595;53.084;6.696;2024-03-23T06:21:52;26.95;;;3.75;;
83632;SDS011;73595;53.084;6.696;2024-03-23T06:24:17;24.48;;;3.05;;
83632;SDS011;73595;53.084;6.696;2024-03-23T06:26:42;22.85;;;3.28;;
83632;SDS011;73595;53.084;6.696;2024-03-23T06:29:08;16.00;;;2.38;;
83632;SDS011;73595;53.084;6.696;2024-03-23T06:31:34;16.10;;;2.15;;
83632;SDS011;73595;53.084;6.696;2024-03-23T06:33:59;13.07;;;2.15;;
83632;SDS011;73595;53.084;6.696;2024-03-23T06:36:26;8.38;;;1.88;;
83632;SDS011;73595;53.084;6.696;2024-03-23T06:38:52;13.90;;;2.38;;
83632;SDS011;73595;53.084;6.696;2024-03-23T06:41:17;12.85;;;2.38;;
83632;SDS011;73595;53.084;6.696;2024-03-23T06:43:44;15.63;;;1.95;;
83632;SDS011;73595;53.084;6.696;2024-03-23T06:46:09;12.63;;;1.88;;
83632;SDS011;73595;53.084;6.696;2024-03-23T06:48:34;16.60;;;2.45;;
83632;SDS011;73595;53.084;6.696;2024-03-23T06:51:00;15.88;;;2.42;;
83632;SDS011;73595;53.084;6.696;2024-03-23T06:53:25;9.43;;;1.88;;
83632;SDS011;73595;53.084;6.696;2024-03-23T06:55:51;7.88;;;1.67;;
83632;SDS011;73595;53.084;6.696;2024-03-23T06:58:18;13.63;;;1.90;;
83632;SDS011;73595;53.084;6.696;2024-03-23T07:00:47;11.95;;;1.98;;
83632;SDS011;73595;53.084;6.696;2024-03-23T07:03:13;12.80;;;2.40;;
83632;SDS011;73595;53.084;6.696;2024-03-23T07:05:38;13.45;;;2.30;;
83632;SDS011;73595;53.084;6.696;2024-03-23T07:08:04;15.55;;;2.55;;
83632;SDS011;73595;53.084;6.696;2024-03-23T07:10:29;15.20;;;2.25;;
83632;SDS011;73595;53.084;6.696;2024-03-23T07:12:55;15.20;;;2.50;;
83632;SDS011;73595;53.084;6.696;2024-03-23T07:15:20;13.43;;;2.38;;
83632;SDS011;73595;53.084;6.696;2024-03-23T07:17:48;16.33;;;3.25;;
83632;SDS011;73595;53.084;6.696;2024-03-23T07:20:13;13.30;;;2.85;;
83632;SDS011;73595;53.084;6.696;2024-03-23T07:22:39;15.15;;;3.53;;
83632;SDS011;73595;53.084;6.696;2024-03-23T07:25:05;22.52;;;2.92;;
83632;SDS011;73595;53.084;6.696;2024-03-23T07:27:31;18.67;;;3.42;;
83632;SDS011;73595;53.084;6.696;2024-03-23T07:29:56;13.95;;;2.58;;
83632;SDS011;73595;53.084;6.696;2024-03-23T07:32:21;14.90;;;2.67;;
83632;SDS011;73595;53.084;6.696;2024-03-23T07:34:47;16.50;;;2.78;;
83632;SDS011;73595;53.084;6.696;2024-03-23T07:37:12;21.55;;;3.33;;
83632;SDS011;73595;53.084;6.696;2024-03-23T07:39:41;21.60;;;3.05;;
83632;SDS011;73595;53.084;6.696;2024-03-23T07:42:07;19.75;;;3.40;;
83632;SDS011;73595;53.084;6.696;2024-03-23T07:44:32;12.43;;;2.60;;
83632;SDS011;73595;53.084;6.696;2024-03-23T07:46:58;20.42;;;2.97;;
83632;SDS011;73595;53.084;6.696;2024-03-23T07:49:25;14.43;;;2.78;;
83632;SDS011;73595;53.084;6.696;2024-03-23T07:51:51;16.08;;;2.35;;
83632;SDS011;73595;53.084;6.696;2024-03-23T07:54:16;15.57;;;2.03;;
83632;SDS011;73595;53.084;6.696;2024-03-23T07:56:41;11.68;;;2.15;;
83632;SDS011;73595;53.084;6.696;2024-03-23T07:59:07;10.93;;;1.98;;
83632;SDS011;73595;53.084;6.696;2024-03-23T08:01:32;14.13;;;2.10;;
83632;SDS011;73595;53.084;6.696;2024-03-23T08:03:57;11.35;;;1.88;;
83632;SDS011;73595;53.084;6.696;2024-03-23T08:06:23;12.40;;;2.05;;
83632;SDS011;73595;53.084;6.696;2024-03-23T08:08:50;8.80;;;1.50;;
83632;SDS011;73595;53.084;6.696;2024-03-23T08:11:24;6.35;;;1.83;;
83632;SDS011;73595;53.084;6.696;2024-03-23T08:13:50;10.75;;;2.20;;
83632;SDS011;73595;53.084;6.696;2024-03-23T08:16:16;8.05;;;1.63;;
83632;SDS011;73595;53.084;6.696;2024-03-23T08:18:41;6.57;;;1.73;;
83632;SDS011;73595;53.084;6.696;2024-03-23T08:21:07;5.13;;;1.50;;
83632;SDS011;73595;53.084;6.696;2024-03-23T08:23:35;8.55;;;1.40;;
83632;SDS011;73595;53.084;6.696;2024-03-23T08:26:05;9.23;;;1.52;;
83632;SDS011;73595;53.084;6.696;2024-03-23T08:28:31;9.43;;;1.63;;
83632;SDS011;73595;53.084;6.696;2024-03-23T08:30:57;8.48;;;1.45;;
83632;SDS011;73595;53.084;6.696;2024-03-23T08:33:26;12.30;;;1.75;;
83632;SDS011;73595;53.084;6.696;2024-03-23T08:35:54;10.38;;;1.50;;
83632;SDS011;73595;53.084;6.696;2024-03-23T08:41:02;5.22;;;1.45;;
83632;SDS011;73595;53.084;6.696;2024-03-23T08:43:29;10.27;;;1.33;;
83632;SDS011;73595;53.084;6.696;2024-03-23T08:46:11;8.10;;;2.20;;
83632;SDS011;73595;53.084;6.696;2024-03-23T08:48:38;7.00;;;1.48;;
83632;SDS011;73595;53.084;6.696;2024-03-23T08:51:06;11.05;;;2.00;;
83632;SDS011;73595;53.084;6.696;2024-03-23T08:53:32;12.05;;;1.92;;
83632;SDS011;73595;53.084;6.696;2024-03-23T08:55:59;10.10;;;1.88;;
83632;SDS011;73595;53.084;6.696;2024-03-23T08:58:28;10.25;;;2.20;;
83632;SDS011;73595;53.084;6.696;2024-03-23T09:00:54;11.05;;;2.47;;
83632;SDS011;73595;53.084;6.696;2024-03-23T09:03:23;10.75;;;2.17;;
83632;SDS011;73595;53.084;6.696;2024-03-23T09:05:49;11.77;;;2.03;;
83632;SDS011;73595;53.084;6.696;2024-03-23T09:08:15;11.32;;;2.10;;
83632;SDS011;73595;53.084;6.696;2024-03-23T09:10:40;15.95;;;2.72;;
83632;SDS011;73595;53.084;6.696;2024-03-23T09:13:06;13.55;;;2.00;;
83632;SDS011;73595;53.084;6.696;2024-03-23T09:15:35;14.20;;;2.15;;
83632;SDS011;73595;53.084;6.696;2024-03-23T09:18:02;13.45;;;2.40;;
83632;SDS011;73595;53.084;6.696;2024-03-23T09:20:27;13.43;;;2.53;;
83632;SDS011;73595;53.084;6.696;2024-03-23T09:22:53;14.32;;;2.63;;
83632;SDS011;73595;53.084;6.696;2024-03-23T09:25:18;12.63;;;3.75;;
83632;SDS011;73595;53.084;6.696;2024-03-23T09:27:45;8.32;;;1.80;;
83632;SDS011;73595;53.084;6.696;2024-03-23T09:30:14;20.42;;;3.25;;
83632;SDS011;73595;53.084;6.696;2024-03-23T09:32:43;16.00;;;2.70;;
83632;SDS011;73595;53.084;6.696;2024-03-23T09:35:09;19.02;;;2.78;;
83632;SDS011;73595;53.084;6.696;2024-03-23T09:37:35;16.10;;;2.72;;
83632;SDS011;73595;53.084;6.696;2024-03-23T09:40:00;13.35;;;2.17;;
83632;SDS011;73595;53.084;6.696;2024-03-23T09:42:26;17.25;;;2.83;;
83632;SDS011;73595;53.084;6.696;2024-03-23T09:44:51;13.57;;;1.83;;
83632;SDS011;73595;53.084;6.696;2024-03-23T09:47:17;11.50;;;1.98;;
83632;SDS011;73595;53.084;6.696;2024-03-23T09:49:43;8.13;;;2.05;;
83632;SDS011;73595;53.084;6.696;2024-03-23T09:52:09;11.48;;;1.65;;
83632;SDS011;73595;53.084;6.696;2024-03-23T09:54:35;11.18;;;1.52;;
83632;SDS011;73595;53.084;6.696;2024-03-23T09:57:00;11.50;;;1.60;;
83632;SDS011;73595;53.084;6.696;2024-03-23T09:59:26;11.48;;;1.60;;
83632;SDS011;73595;53.084;6.696;2024-03-23T10:01:52;11.20;;;1.60;;
83632;SDS011;73595;53.084;6.696;2024-03-23T10:04:36;9.70;;;1.70;;
83632;SDS011;73595;53.084;6.696;2024-03-23T10:07:14;7.40;;;1.58;;
83632;SDS011;73595;53.084;6.696;2024-03-23T10:09:42;10.52;;;1.63;;
83632;SDS011;73595;53.084;6.696;2024-03-23T10:12:11;15.63;;;2.00;;
83632;SDS011;73595;53.084;6.696;2024-03-23T10:14:38;5.47;;;1.40;;
83632;SDS011;73595;53.084;6.696;2024-03-23T10:17:17;9.05;;;1.90;;
83632;SDS011;73595;53.084;6.696;2024-03-23T10:19:43;8.52;;;1.75;;
83632;SDS011;73595;53.084;6.696;2024-03-23T10:22:15;12.67;;;1.70;;
83632;SDS011;73595;53.084;6.696;2024-03-23T10:24:42;9.63;;;1.45;;
83632;SDS011;73595;53.084;6.696;2024-03-23T10:27:08;13.10;;;1.63;;
83632;SDS011;73595;53.084;6.696;2024-03-23T10:29:33;10.75;;;1.77;;
83632;SDS011;73595;53.084;6.696;2024-03-23T10:32:08;17.42;;;2.45;;
83632;SDS011;73595;53.084;6.696;2024-03-23T10:34:35;13.18;;;2.03;;
83632;SDS011;73595;53.084;6.696;2024-03-23T10:37:01;13.40;;;2.00;;
83632;SDS011;73595;53.084;6.696;2024-03-23T10:39:28;13.98;;;2.03;;
83632;SDS011;73595;53.084;6.696;2024-03-23T10:41:55;14.05;;;2.05;;
83632;SDS011;73595;53.084;6.696;2024-03-23T10:44:22;10.20;;;1.70;;
83632;SDS011;73595;53.084;6.696;2024-03-23T10:46:51;9.68;;;2.05;;
83632;SDS011;73595;53.084;6.696;2024-03-23T10:49:23;9.50;;;1.67;;
83632;SDS011;73595;53.084;6.696;2024-03-23T10:51:50;8.02;;;1.50;;
83632;SDS011;73595;53.084;6.696;2024-03-23T10:54:16;9.57;;;1.90;;
83632;SDS011;73595;53.084;6.696;2024-03-23T10:56:43;12.60;;;2.08;;
83632;SDS011;73595;53.084;6.696;2024-03-23T10:59:09;10.07;;;2.10;;
83632;SDS011;73595;53.084;6.696;2024-03-23T11:01:35;11.38;;;2.00;;
83632;SDS011;73595;53.084;6.696;2024-03-23T11:04:29;7.55;;;1.55;;
83632;SDS011;73595;53.084;6.696;2024-03-23T11:06:54;7.13;;;1.30;;
83632;SDS011;73595;53.084;6.696;2024-03-23T11:09:37;8.23;;;1.20;;
83632;SDS011;73595;53.084;6.696;2024-03-23T11:14:51;7.68;;;1.52;;
83632;SDS011;73595;53.084;6.696;2024-03-23T11:17:18;7.35;;;1.25;;
83632;SDS011;73595;53.084;6.696;2024-03-23T11:19:46;9.00;;;2.00;;
83632;SDS011;73595;53.084;6.696;2024-03-23T11:25:24;8.52;;;1.30;;
83632;SDS011;73595;53.084;6.696;2024-03-23T11:27:51;7.30;;;1.33;;
83632;SDS011;73595;53.084;6.696;2024-03-23T11:32:48;7.28;;;1.55;;
83632;SDS011;73595;53.084;6.696;2024-03-23T11:38:03;8.45;;;1.50;;
83632;SDS011;73595;53.084;6.696;2024-03-23T11:40:33;6.25;;;1.38;;
83632;SDS011;73595;53.084;6.696;2024-03-23T11:43:00;5.88;;;1.00;;
83632;SDS011;73595;53.084;6.696;2024-03-23T11:45:27;5.90;;;1.10;;
83632;SDS011;73595;53.084;6.696;2024-03-23T11:48:04;4.88;;;1.17;;
83632;SDS011;73595;53.084;6.696;2024-03-23T11:50:29;6.75;;;1.40;;
83632;SDS011;73595;53.084;6.696;2024-03-23T11:53:14;5.55;;;1.23;;
83632;SDS011;73595;53.084;6.696;2024-03-23T11:55:57;7.07;;;1.13;;
83632;SDS011;73595;53.084;6.696;2024-03-23T11:58:24;12.82;;;1.40;;
83632;SDS011;73595;53.084;6.696;2024-03-23T12:01:00;8.15;;;1.30;;
83632;SDS011;73595;53.084;6.696;2024-03-23T12:03:27;12.00;;;1.50;;
83632;SDS011;73595;53.084;6.696;2024-03-23T12:06:00;9.25;;;1.58;;
83632;SDS011;73595;53.084;6.696;2024-03-23T12:08:33;9.70;;;1.10;;
83632;SDS011;73595;53.084;6.696;2024-03-23T12:11:10;6.25;;;1.10;;
83632;SDS011;73595;53.084;6.696;2024-03-23T12:13:37;6.40;;;1.13;;
83632;SDS011;73595;53.084;6.696;2024-03-23T12:16:36;8.15;;;1.10;;
83632;SDS011;73595;53.084;6.696;2024-03-23T12:18:55;6.80;;;1.50;;
83632;SDS011;73595;53.084;6.696;2024-03-23T12:21:30;13.52;;;1.90;;
83632;SDS011;73595;53.084;6.696;2024-03-23T12:23:55;8.95;;;1.75;;
83632;SDS011;73595;53.084;6.696;2024-03-23T12:26:21;10.65;;;1.38;;
83632;SDS011;73595;53.084;6.696;2024-03-23T12:28:47;9.98;;;1.52;;
83632;SDS011;73595;53.084;6.696;2024-03-23T12:31:13;7.15;;;1.27;;
83632;SDS011;73595;53.084;6.696;2024-03-23T12:33:38;6.88;;;1.25;;
83632;SDS011;73595;53.084;6.696;2024-03-23T12:36:03;3.95;;;1.23;;
83632;SDS011;73595;53.084;6.696;2024-03-23T12:38:29;7.68;;;1.10;;
83632;SDS011;73595;53.084;6.696;2024-03-23T12:40:54;4.13;;;1.08;;
83632;SDS011;73595;53.084;6.696;2024-03-23T12:43:20;9.02;;;1.35;;
83632;SDS011;73595;53.084;6.696;2024-03-23T12:45:48;5.20;;;0.80;;
83632;SDS011;73595;53.084;6.696;2024-03-23T12:48:15;4.38;;;0.90;;
83632;SDS011;73595;53.084;6.696;2024-03-23T12:50:40;8.55;;;1.08;;
83632;SDS011;73595;53.084;6.696;2024-03-23T12:53:06;8.90;;;1.05;;
83632;SDS011;73595;53.084;6.696;2024-03-23T12:55:31;9.00;;;1.35;;
83632;SDS011;73595;53.084;6.696;2024-03-23T12:57:56;7.57;;;1.25;;
83632;SDS011;73595;53.084;6.696;2024-03-23T13:00:22;2.85;;;0.68;;
83632;SDS011;73595;53.084;6.696;2024-03-23T13:02:47;3.90;;;1.08;;
83632;SDS011;73595;53.084;6.696;2024-03-23T13:05:13;5.93;;;1.20;;
83632;SDS011;73595;53.084;6.696;2024-03-23T13:07:38;8.57;;;1.25;;
83632;SDS011;73595;53.084;6.696;2024-03-23T13:10:04;9.23;;;1.40;;
83632;SDS011;73595;53.084;6.696;2024-03-23T13:12:30;4.65;;;0.95;;
83632;SDS011;73595;53.084;6.696;2024-03-23T13:14:56;6.45;;;1.10;;
83632;SDS011;73595;53.084;6.696;2024-03-23T13:17:21;9.38;;;1.45;;
83632;SDS011;73595;53.084;6.696;2024-03-23T13:19:46;6.20;;;1.00;;
83632;SDS011;73595;53.084;6.696;2024-03-23T13:22:12;8.10;;;1.20;;
83632;SDS011;73595;53.084;6.696;2024-03-23T13:24:37;7.57;;;1.30;;
83632;SDS011;73595;53.084;6.696;2024-03-23T13:27:03;5.82;;;1.67;;
83632;SDS011;73595;53.084;6.696;2024-03-23T13:29:32;5.90;;;1.40;;
83632;SDS011;73595;53.084;6.696;2024-03-23T13:31:59;10.35;;;1.58;;
83632;SDS011;73595;53.084;6.696;2024-03-23T13:34:25;6.30;;;1.17;;
83632;SDS011;73595;53.084;6.696;2024-03-23T13:36:50;9.73;;;1.52;;
83632;SDS011;73595;53.084;6.696;2024-03-23T13:39:15;13.85;;;1.52;;
83632;SDS011;73595;53.084;6.696;2024-03-23T13:41:41;10.13;;;1.60;;
83632;SDS011;73595;53.084;6.696;2024-03-23T13:44:09;12.15;;;1.80;;
83632;SDS011;73595;53.084;6.696;2024-03-23T13:46:38;16.27;;;2.47;;
83632;SDS011;73595;53.084;6.696;2024-03-23T13:49:05;13.43;;;2.10;;
83632;SDS011;73595;53.084;6.696;2024-03-23T13:51:31;16.67;;;2.08;;
83632;SDS011;73595;53.084;6.696;2024-03-23T13:53:56;10.13;;;1.90;;
83632;SDS011;73595;53.084;6.696;2024-03-23T13:56:22;14.23;;;2.55;;
83632;SDS011;73595;53.084;6.696;2024-03-23T13:58:48;13.13;;;2.28;;
83632;SDS011;73595;53.084;6.696;2024-03-23T14:01:14;14.90;;;2.47;;
83632;SDS011;73595;53.084;6.696;2024-03-23T14:03:40;17.00;;;2.00;;
83632;SDS011;73595;53.084;6.696;2024-03-23T14:06:07;10.75;;;2.10;;
83632;SDS011;73595;53.084;6.696;2024-03-23T14:08:33;13.77;;;2.03;;
83632;SDS011;73595;53.084;6.696;2024-03-23T14:11:01;18.42;;;2.55;;
83632;SDS011;73595;53.084;6.696;2024-03-23T14:13:29;12.63;;;1.90;;
83632;SDS011;73595;53.084;6.696;2024-03-23T14:15:55;9.82;;;1.88;;
83632;SDS011;73595;53.084;6.696;2024-03-23T14:18:20;12.88;;;2.20;;
83632;SDS011;73595;53.084;6.696;2024-03-23T14:20:47;18.20;;;2.83;;
83632;SDS011;73595;53.084;6.696;2024-03-23T14:23:13;9.40;;;1.77;;
83632;SDS011;73595;53.084;6.696;2024-03-23T14:25:38;14.35;;;2.17;;
83632;SDS011;73595;53.084;6.696;2024-03-23T14:28:03;12.63;;;2.40;;
83632;SDS011;73595;53.084;6.696;2024-03-23T14:30:29;12.60;;;2.30;;
83632;SDS011;73595;53.084;6.696;2024-03-23T14:32:54;16.38;;;2.47;;
83632;SDS011;73595;53.084;6.696;2024-03-23T14:35:19;15.48;;;2.50;;
83632;SDS011;73595;53.084;6.696;2024-03-23T14:37:45;12.27;;;2.15;;
83632;SDS011;73595;53.084;6.696;2024-03-23T14:40:12;14.75;;;2.72;;
83632;SDS011;73595;53.084;6.696;2024-03-23T14:42:37;16.25;;;2.42;;
83632;SDS011;73595;53.084;6.696;2024-03-23T14:45:03;23.73;;;2.67;;
83632;SDS011;73595;53.084;6.696;2024-03-23T14:47:29;17.30;;;2.70;;
83632;SDS011;73595;53.084;6.696;2024-03-23T14:49:54;19.83;;;2.50;;
83632;SDS011;73595;53.084;6.696;2024-03-23T14:52:20;17.88;;;2.10;;
83632;SDS011;73595;53.084;6.696;2024-03-23T14:54:45;14.30;;;2.10;;
83632;SDS011;73595;53.084;6.696;2024-03-23T14:57:11;25.08;;;2.75;;
83632;SDS011;73595;53.084;6.696;2024-03-23T14:59:37;13.15;;;2.35;;
83632;SDS011;73595;53.084;6.696;2024-03-23T15:02:07;16.65;;;2.30;;
83632;SDS011;73595;53.084;6.696;2024-03-23T15:04:32;12.88;;;2.63;;
83632;SDS011;73595;53.084;6.696;2024-03-23T15:06:58;13.70;;;2.30;;
83632;SDS011;73595;53.084;6.696;2024-03-23T15:09:23;18.73;;;2.88;;
83632;SDS011;73595;53.084;6.696;2024-03-23T15:11:48;19.58;;;2.35;;
83632;SDS011;73595;53.084;6.696;2024-03-23T15:14:14;15.88;;;2.10;;
83632;SDS011;73595;53.084;6.696;2024-03-23T15:16:39;14.63;;;2.15;;
83632;SDS011;73595;53.084;6.696;2024-03-23T15:19:04;12.57;;;2.13;;
83632;SDS011;73595;53.084;6.696;2024-03-23T15:21:31;10.60;;;2.15;;
83632;SDS011;73595;53.084;6.696;2024-03-23T15:23:57;10.10;;;1.90;;
83632;SDS011;73595;53.084;6.696;2024-03-23T15:26:22;14.18;;;1.80;;
83632;SDS011;73595;53.084;6.696;2024-03-23T15:28:48;7.55;;;1.77;;
83632;SDS011;73595;53.084;6.696;2024-03-23T15:31:23;10.77;;;1.85;;
83632;SDS011;73595;53.084;6.696;2024-03-23T15:33:49;11.27;;;2.00;;
83632;SDS011;73595;53.084;6.696;2024-03-23T15:36:15;13.07;;;2.17;;
83632;SDS011;73595;53.084;6.696;2024-03-23T15:38:40;12.10;;;1.73;;
83632;SDS011;73595;53.084;6.696;2024-03-23T15:41:05;14.38;;;1.77;;
83632;SDS011;73595;53.084;6.696;2024-03-23T15:43:31;10.30;;;1.70;;